sensor_id;sensor_type;location;lat;lon;timestamp;pressure;altitude;pressure_sealevel;temperature;humidity
8320;BME280;4197;42.130;24.746;2022-08-01T00:00:10;99124.41;;;23.72;55.13
8320;BME280;4197;42.130;24.746;2022-08-01T00:02:38;99124.53;;;23.68;55.45
8320;BME280;4197;42.130;24.746;2022-08-01T00:05:08;99117.34;;;23.71;54.79
8320;BME280;4197;42.130;24.746;2022-08-01T00:07:38;99124.75;;;23.74;54.90
8320;BME280;4197;42.130;24.746;2022-08-01T00:10:09;99119.22;;;23.61;55.21
8320;BME280;4197;42.130;24.746;2022-08-01T00:12:38;99109.41;;;23.60;55.44
8320;BME280;4197;42.130;24.746;2022-08-01T00:15:09;99108.63;;;23.59;55.58
8320;BME280;4197;42.130;24.746;2022-08-01T00:17:38;99117.69;;;23.60;55.52
8320;BME280;4197;42.130;24.746;2022-08-01T00:20:10;99104.94;;;23.63;55.23
8320;BME280;4197;42.130;24.746;2022-08-01T00:22:41;99114.16;;;23.59;55.57
8320;BME280;4197;42.130;24.746;2022-08-01T00:25:09;99115.41;;;23.58;55.43
8320;BME280;4197;42.130;24.746;2022-08-01T00:27:38;99117.38;;;23.58;55.53
8320;BME280;4197;42.130;24.746;2022-08-01T00:30:07;99111.00;;;23.48;55.63
8320;BME280;4197;42.130;24.746;2022-08-01T00:32:42;99119.63;;;23.50;55.33
8320;BME280;4197;42.130;24.746;2022-08-01T00:35:11;99126.03;;;23.47;55.65
8320;BME280;4197;42.130;24.746;2022-08-01T00:37:41;99123.41;;;23.44;55.36
8320;BME280;4197;42.130;24.746;2022-08-01T00:40:11;99117.13;;;23.43;55.23
8320;BME280;4197;42.130;24.746;2022-08-01T00:42:39;99123.97;;;23.38;55.31
8320;BME280;4197;42.130;24.746;2022-08-01T00:45:10;99121.81;;;23.33;55.30
8320;BME280;4197;42.130;24.746;2022-08-01T00:47:38;99131.13;;;23.27;55.39
8320;BME280;4197;42.130;24.746;2022-08-01T00:50:07;99134.78;;;23.24;55.44
8320;BME280;4197;42.130;24.746;2022-08-01T00:52:36;99126.28;;;23.18;55.53
8320;BME280;4197;42.130;24.746;2022-08-01T00:55:07;99140.34;;;23.11;55.74
8320;BME280;4197;42.130;24.746;2022-08-01T00:57:41;99130.38;;;23.13;55.39
8320;BME280;4197;42.130;24.746;2022-08-01T01:00:30;99125.75;;;23.10;55.65
8320;BME280;4197;42.130;24.746;2022-08-01T01:03:18;99126.50;;;23.11;55.32
8320;BME280;4197;42.130;24.746;2022-08-01T01:06:11;99128.31;;;23.05;55.62
8320;BME280;4197;42.130;24.746;2022-08-01T01:08:43;99128.44;;;23.01;55.81
8320;BME280;4197;42.130;24.746;2022-08-01T01:11:20;99130.63;;;22.93;56.05
8320;BME280;4197;42.130;24.746;2022-08-01T01:13:55;99135.38;;;22.93;55.82
8320;BME280;4197;42.130;24.746;2022-08-01T01:16:27;99128.41;;;22.88;55.97
8320;BME280;4197;42.130;24.746;2022-08-01T01:19:01;99133.41;;;22.81;56.21
8320;BME280;4197;42.130;24.746;2022-08-01T01:21:47;99131.31;;;22.72;56.13
8320;BME280;4197;42.130;24.746;2022-08-01T01:24:34;99131.09;;;22.66;56.62
8320;BME280;4197;42.130;24.746;2022-08-01T01:27:13;99131.66;;;22.61;56.78
8320;BME280;4197;42.130;24.746;2022-08-01T01:29:48;99136.63;;;22.66;56.58
8320;BME280;4197;42.130;24.746;2022-08-01T01:32:31;99134.31;;;22.65;56.87
8320;BME280;4197;42.130;24.746;2022-08-01T01:35:05;99139.94;;;22.61;57.22
8320;BME280;4197;42.130;24.746;2022-08-01T01:37:35;99133.22;;;22.49;57.55
8320;BME280;4197;42.130;24.746;2022-08-01T01:40:08;99137.31;;;22.45;57.82
8320;BME280;4197;42.130;24.746;2022-08-01T01:42:37;99140.94;;;22.42;57.88
8320;BME280;4197;42.130;24.746;2022-08-01T01:45:08;99134.13;;;22.34;58.40
8320;BME280;4197;42.130;24.746;2022-08-01T01:47:37;99143.72;;;22.29;58.57
8320;BME280;4197;42.130;24.746;2022-08-01T01:50:08;99130.56;;;22.33;58.65
8320;BME280;4197;42.130;24.746;2022-08-01T01:52:38;99127.03;;;22.33;58.48
8320;BME280;4197;42.130;24.746;2022-08-01T01:55:08;99126.69;;;22.31;58.85
8320;BME280;4197;42.130;24.746;2022-08-01T01:57:41;99121.75;;;22.25;59.00
8320;BME280;4197;42.130;24.746;2022-08-01T02:00:16;99133.06;;;22.15;59.45
8320;BME280;4197;42.130;24.746;2022-08-01T02:02:45;99126.34;;;22.16;59.31
8320;BME280;4197;42.130;24.746;2022-08-01T02:05:15;99137.91;;;22.11;59.52
8320;BME280;4197;42.130;24.746;2022-08-01T02:07:44;99136.81;;;22.08;59.32
8320;BME280;4197;42.130;24.746;2022-08-01T02:10:16;99134.03;;;22.08;59.48
8320;BME280;4197;42.130;24.746;2022-08-01T02:12:54;99132.63;;;22.03;59.64
8320;BME280;4197;42.130;24.746;2022-08-01T02:15:26;99128.75;;;22.01;59.59
8320;BME280;4197;42.130;24.746;2022-08-01T02:17:56;99132.94;;;22.05;59.51
8320;BME280;4197;42.130;24.746;2022-08-01T02:20:27;99128.88;;;22.10;59.17
8320;BME280;4197;42.130;24.746;2022-08-01T02:23:01;99128.75;;;22.14;58.63
8320;BME280;4197;42.130;24.746;2022-08-01T02:25:36;99130.41;;;22.11;58.59
8320;BME280;4197;42.130;24.746;2022-08-01T02:28:30;99133.34;;;22.20;57.97
8320;BME280;4197;42.130;24.746;2022-08-01T02:31:04;99131.09;;;22.15;58.27
8320;BME280;4197;42.130;24.746;2022-08-01T02:33:38;99132.31;;;22.14;58.18
8320;BME280;4197;42.130;24.746;2022-08-01T02:36:08;99137.03;;;22.14;58.09
8320;BME280;4197;42.130;24.746;2022-08-01T02:39:02;99133.97;;;22.12;57.99
8320;BME280;4197;42.130;24.746;2022-08-01T02:41:33;99138.47;;;22.05;58.29
8320;BME280;4197;42.130;24.746;2022-08-01T02:44:05;99127.63;;;21.98;58.50
8320;BME280;4197;42.130;24.746;2022-08-01T02:46:51;99123.75;;;21.96;58.46
8320;BME280;4197;42.130;24.746;2022-08-01T02:49:21;99118.13;;;21.87;58.89
8320;BME280;4197;42.130;24.746;2022-08-01T02:51:54;99120.31;;;21.79;58.89
8320;BME280;4197;42.130;24.746;2022-08-01T02:54:23;99124.19;;;21.81;59.00
8320;BME280;4197;42.130;24.746;2022-08-01T02:56:52;99133.22;;;21.82;58.85
8320;BME280;4197;42.130;24.746;2022-08-01T02:59:24;99123.94;;;21.76;59.13
8320;BME280;4197;42.130;24.746;2022-08-01T03:01:57;99119.84;;;21.68;59.17
8320;BME280;4197;42.130;24.746;2022-08-01T03:04:29;99124.25;;;21.65;59.17
8320;BME280;4197;42.130;24.746;2022-08-01T03:06:57;99119.84;;;21.68;58.78
8320;BME280;4197;42.130;24.746;2022-08-01T03:09:27;99127.34;;;21.67;58.81
8320;BME280;4197;42.130;24.746;2022-08-01T03:11:59;99117.63;;;21.63;58.51
8320;BME280;4197;42.130;24.746;2022-08-01T03:14:30;99119.78;;;21.55;58.83
8320;BME280;4197;42.130;24.746;2022-08-01T03:17:04;99112.53;;;21.61;58.14
8320;BME280;4197;42.130;24.746;2022-08-01T03:19:34;99109.09;;;21.57;57.92
8320;BME280;4197;42.130;24.746;2022-08-01T03:22:06;99111.88;;;21.57;57.65
8320;BME280;4197;42.130;24.746;2022-08-01T03:24:37;99106.38;;;21.70;56.79
8320;BME280;4197;42.130;24.746;2022-08-01T03:27:07;99108.59;;;21.75;56.35
8320;BME280;4197;42.130;24.746;2022-08-01T03:29:39;99108.50;;;21.78;56.20
8320;BME280;4197;42.130;24.746;2022-08-01T03:32:11;99115.69;;;21.89;55.78
8320;BME280;4197;42.130;24.746;2022-08-01T03:34:40;99113.06;;;21.98;55.11
8320;BME280;4197;42.130;24.746;2022-08-01T03:37:12;99110.06;;;22.05;54.70
8320;BME280;4197;42.130;24.746;2022-08-01T03:39:46;99107.78;;;22.16;54.04
8320;BME280;4197;42.130;24.746;2022-08-01T03:42:19;99104.84;;;22.23;53.79
8320;BME280;4197;42.130;24.746;2022-08-01T03:44:53;99105.38;;;22.31;53.38
8320;BME280;4197;42.130;24.746;2022-08-01T03:47:33;99107.25;;;22.34;52.97
8320;BME280;4197;42.130;24.746;2022-08-01T03:50:10;99104.25;;;22.41;52.62
8320;BME280;4197;42.130;24.746;2022-08-01T03:52:42;99105.81;;;22.55;52.07
8320;BME280;4197;42.130;24.746;2022-08-01T03:55:15;99111.44;;;22.64;51.86
8320;BME280;4197;42.130;24.746;2022-08-01T03:57:45;99111.06;;;22.75;51.41
8320;BME280;4197;42.130;24.746;2022-08-01T04:00:14;99108.53;;;22.81;50.94
8320;BME280;4197;42.130;24.746;2022-08-01T04:02:47;99115.38;;;22.89;50.84
8320;BME280;4197;42.130;24.746;2022-08-01T04:05:15;99112.03;;;22.94;50.24
8320;BME280;4197;42.130;24.746;2022-08-01T04:07:46;99114.94;;;23.03;50.02
8320;BME280;4197;42.130;24.746;2022-08-01T04:10:15;99124.09;;;23.13;49.55
8320;BME280;4197;42.130;24.746;2022-08-01T04:12:43;99116.66;;;23.23;48.88
8320;BME280;4197;42.130;24.746;2022-08-01T04:15:12;99120.50;;;23.25;48.85
8320;BME280;4197;42.130;24.746;2022-08-01T04:17:40;99123.97;;;23.38;48.91
8320;BME280;4197;42.130;24.746;2022-08-01T04:20:11;99123.59;;;23.49;48.00
8320;BME280;4197;42.130;24.746;2022-08-01T04:22:40;99120.03;;;23.62;48.10
8320;BME280;4197;42.130;24.746;2022-08-01T04:25:12;99121.88;;;23.65;47.90
8320;BME280;4197;42.130;24.746;2022-08-01T04:27:46;99121.97;;;23.74;47.53
8320;BME280;4197;42.130;24.746;2022-08-01T04:30:20;99125.06;;;23.76;47.88
8320;BME280;4197;42.130;24.746;2022-08-01T04:32:52;99120.09;;;23.93;47.40
8320;BME280;4197;42.130;24.746;2022-08-01T04:35:25;99125.38;;;24.00;46.93
8320;BME280;4197;42.130;24.746;2022-08-01T04:38:19;99136.03;;;24.11;46.30
8320;BME280;4197;42.130;24.746;2022-08-01T04:40:51;99127.78;;;24.20;46.12
8320;BME280;4197;42.130;24.746;2022-08-01T04:43:20;99133.50;;;24.25;46.03
8320;BME280;4197;42.130;24.746;2022-08-01T04:45:50;99132.09;;;24.21;46.09
8320;BME280;4197;42.130;24.746;2022-08-01T04:48:19;99139.03;;;24.25;45.41
8320;BME280;4197;42.130;24.746;2022-08-01T04:50:51;99131.63;;;24.22;45.50
8320;BME280;4197;42.130;24.746;2022-08-01T04:53:20;99126.28;;;24.28;45.16
8320;BME280;4197;42.130;24.746;2022-08-01T04:55:49;99126.56;;;24.30;45.80
8320;BME280;4197;42.130;24.746;2022-08-01T04:58:18;99134.63;;;24.37;44.83
8320;BME280;4197;42.130;24.746;2022-08-01T05:00:47;99128.28;;;24.59;43.60
8320;BME280;4197;42.130;24.746;2022-08-01T05:03:15;99133.63;;;24.22;44.09
8320;BME280;4197;42.130;24.746;2022-08-01T05:05:43;99124.34;;;24.47;43.32
8320;BME280;4197;42.130;24.746;2022-08-01T05:08:13;99128.88;;;24.63;42.54
8320;BME280;4197;42.130;24.746;2022-08-01T05:10:43;99128.00;;;24.75;42.66
8320;BME280;4197;42.130;24.746;2022-08-01T05:13:11;99116.94;;;24.84;42.37
8320;BME280;4197;42.130;24.746;2022-08-01T05:15:39;99137.59;;;24.83;41.92
8320;BME280;4197;42.130;24.746;2022-08-01T05:18:07;99129.25;;;24.83;41.86
8320;BME280;4197;42.130;24.746;2022-08-01T05:20:36;99129.44;;;24.89;42.05
8320;BME280;4197;42.130;24.746;2022-08-01T05:23:05;99130.84;;;25.03;41.57
8320;BME280;4197;42.130;24.746;2022-08-01T05:25:41;99135.16;;;25.04;42.11
8320;BME280;4197;42.130;24.746;2022-08-01T05:28:24;99130.69;;;24.97;41.63
8320;BME280;4197;42.130;24.746;2022-08-01T05:30:52;99121.28;;;24.95;41.63
8320;BME280;4197;42.130;24.746;2022-08-01T05:33:21;99124.34;;;24.97;42.17
8320;BME280;4197;42.130;24.746;2022-08-01T05:35:50;99125.84;;;24.88;42.04
8320;BME280;4197;42.130;24.746;2022-08-01T05:38:18;99128.25;;;25.18;41.70
8320;BME280;4197;42.130;24.746;2022-08-01T05:40:47;99123.47;;;25.36;40.66
8320;BME280;4197;42.130;24.746;2022-08-01T05:43:16;99126.88;;;25.41;40.77
8320;BME280;4197;42.130;24.746;2022-08-01T05:45:44;99131.34;;;25.56;40.09
8320;BME280;4197;42.130;24.746;2022-08-01T05:48:12;99131.19;;;25.69;39.62
8320;BME280;4197;42.130;24.746;2022-08-01T05:50:41;99132.53;;;25.74;37.83
8320;BME280;4197;42.130;24.746;2022-08-01T05:53:09;99128.97;;;25.82;37.98
8320;BME280;4197;42.130;24.746;2022-08-01T05:55:37;99133.31;;;25.93;37.50
8320;BME280;4197;42.130;24.746;2022-08-01T05:58:08;99127.28;;;25.76;38.25
8320;BME280;4197;42.130;24.746;2022-08-01T06:00:38;99129.59;;;25.96;36.92
8320;BME280;4197;42.130;24.746;2022-08-01T06:03:06;99111.72;;;25.88;37.40
8320;BME280;4197;42.130;24.746;2022-08-01T06:05:34;99119.72;;;25.95;35.65
8320;BME280;4197;42.130;24.746;2022-08-01T06:08:03;99129.00;;;25.92;35.62
8320;BME280;4197;42.130;24.746;2022-08-01T06:10:32;99124.81;;;25.96;34.67
8320;BME280;4197;42.130;24.746;2022-08-01T06:13:00;99113.56;;;25.91;33.74
8320;BME280;4197;42.130;24.746;2022-08-01T06:15:31;99131.47;;;25.80;33.92
8320;BME280;4197;42.130;24.746;2022-08-01T06:18:00;99116.66;;;25.65;34.83
8320;BME280;4197;42.130;24.746;2022-08-01T06:20:28;99111.44;;;25.58;34.49
8320;BME280;4197;42.130;24.746;2022-08-01T06:22:57;99120.53;;;25.58;34.35
8320;BME280;4197;42.130;24.746;2022-08-01T06:25:28;99116.22;;;25.57;34.40
8320;BME280;4197;42.130;24.746;2022-08-01T06:27:56;99109.59;;;25.64;33.81
8320;BME280;4197;42.130;24.746;2022-08-01T06:30:24;99108.66;;;25.67;34.37
8320;BME280;4197;42.130;24.746;2022-08-01T06:32:54;99109.56;;;25.73;33.42
8320;BME280;4197;42.130;24.746;2022-08-01T06:35:25;99106.78;;;25.73;33.60
8320;BME280;4197;42.130;24.746;2022-08-01T06:37:53;99110.31;;;25.74;33.42
8320;BME280;4197;42.130;24.746;2022-08-01T06:40:22;99106.94;;;25.70;32.85
8320;BME280;4197;42.130;24.746;2022-08-01T06:42:50;99096.91;;;25.63;33.10
8320;BME280;4197;42.130;24.746;2022-08-01T06:45:18;99095.38;;;25.71;33.75
8320;BME280;4197;42.130;24.746;2022-08-01T06:47:49;99105.53;;;25.74;33.86
8320;BME280;4197;42.130;24.746;2022-08-01T06:50:19;99106.31;;;25.75;33.17
8320;BME280;4197;42.130;24.746;2022-08-01T06:52:48;99110.81;;;25.54;33.17
8320;BME280;4197;42.130;24.746;2022-08-01T06:55:16;99106.66;;;25.49;33.81
8320;BME280;4197;42.130;24.746;2022-08-01T06:57:46;99104.50;;;25.53;34.05
8320;BME280;4197;42.130;24.746;2022-08-01T07:00:16;99092.00;;;25.67;34.00
8320;BME280;4197;42.130;24.746;2022-08-01T07:02:45;99078.25;;;25.73;33.66
8320;BME280;4197;42.130;24.746;2022-08-01T07:05:13;99076.22;;;25.73;33.71
8320;BME280;4197;42.130;24.746;2022-08-01T07:07:43;99084.53;;;25.82;33.90
8320;BME280;4197;42.130;24.746;2022-08-01T07:10:11;99085.50;;;25.89;34.07
8320;BME280;4197;42.130;24.746;2022-08-01T07:12:40;99089.50;;;25.88;32.96
8320;BME280;4197;42.130;24.746;2022-08-01T07:15:09;99086.41;;;25.76;33.09
8320;BME280;4197;42.130;24.746;2022-08-01T07:17:38;99086.72;;;25.78;33.29
8320;BME280;4197;42.130;24.746;2022-08-01T07:20:10;99088.25;;;25.79;33.51
8320;BME280;4197;42.130;24.746;2022-08-01T07:22:43;99097.53;;;25.86;33.37
8320;BME280;4197;42.130;24.746;2022-08-01T07:25:14;99080.06;;;25.94;34.26
8320;BME280;4197;42.130;24.746;2022-08-01T07:27:42;99082.19;;;26.09;33.76
8320;BME280;4197;42.130;24.746;2022-08-01T07:30:12;99082.00;;;26.12;33.32
8320;BME280;4197;42.130;24.746;2022-08-01T07:32:40;99084.78;;;26.12;32.84
8320;BME280;4197;42.130;24.746;2022-08-01T07:35:09;99072.00;;;26.06;33.09
8320;BME280;4197;42.130;24.746;2022-08-01T07:37:37;99062.59;;;26.03;32.59
8320;BME280;4197;42.130;24.746;2022-08-01T07:40:16;99059.19;;;26.08;33.20
8320;BME280;4197;42.130;24.746;2022-08-01T07:42:45;99058.84;;;26.15;32.48
8320;BME280;4197;42.130;24.746;2022-08-01T07:45:15;99053.88;;;26.19;32.35
8320;BME280;4197;42.130;24.746;2022-08-01T07:47:43;99063.44;;;26.28;32.32
8320;BME280;4197;42.130;24.746;2022-08-01T07:50:12;99054.56;;;26.38;32.17
8320;BME280;4197;42.130;24.746;2022-08-01T07:52:41;99064.06;;;26.46;32.39
8320;BME280;4197;42.130;24.746;2022-08-01T07:55:09;99055.72;;;26.56;31.90
8320;BME280;4197;42.130;24.746;2022-08-01T07:57:43;99063.13;;;26.59;31.94
8320;BME280;4197;42.130;24.746;2022-08-01T08:00:13;99064.88;;;26.47;32.14
8320;BME280;4197;42.130;24.746;2022-08-01T08:02:41;99051.25;;;26.49;31.92
8320;BME280;4197;42.130;24.746;2022-08-01T08:05:10;99053.53;;;26.60;31.98
8320;BME280;4197;42.130;24.746;2022-08-01T08:07:39;99053.75;;;26.71;31.96
8320;BME280;4197;42.130;24.746;2022-08-01T08:10:08;99056.38;;;26.75;31.84
8320;BME280;4197;42.130;24.746;2022-08-01T08:12:36;99063.78;;;26.78;31.36
8320;BME280;4197;42.130;24.746;2022-08-01T08:15:07;99040.78;;;26.77;32.27
8320;BME280;4197;42.130;24.746;2022-08-01T08:17:36;99042.09;;;26.82;31.45
8320;BME280;4197;42.130;24.746;2022-08-01T08:20:06;99042.06;;;26.91;31.77
8320;BME280;4197;42.130;24.746;2022-08-01T08:22:52;99027.31;;;27.00;30.97
8320;BME280;4197;42.130;24.746;2022-08-01T08:25:20;99034.16;;;26.89;31.13
8320;BME280;4197;42.130;24.746;2022-08-01T08:27:52;99039.53;;;26.93;31.36
8320;BME280;4197;42.130;24.746;2022-08-01T08:30:22;99038.88;;;26.98;31.39
8320;BME280;4197;42.130;24.746;2022-08-01T08:32:50;99039.09;;;26.95;31.46
8320;BME280;4197;42.130;24.746;2022-08-01T08:35:18;99032.31;;;27.10;31.49
8320;BME280;4197;42.130;24.746;2022-08-01T08:37:49;99032.16;;;27.29;30.98
8320;BME280;4197;42.130;24.746;2022-08-01T08:40:23;99038.38;;;27.24;30.88
8320;BME280;4197;42.130;24.746;2022-08-01T08:42:57;99028.56;;;27.13;31.20
8320;BME280;4197;42.130;24.746;2022-08-01T08:45:29;99033.41;;;27.28;31.29
8320;BME280;4197;42.130;24.746;2022-08-01T08:48:19;99030.22;;;27.35;31.22
8320;BME280;4197;42.130;24.746;2022-08-01T08:50:53;99015.84;;;27.36;30.82
8320;BME280;4197;42.130;24.746;2022-08-01T08:53:23;99025.72;;;27.38;31.37
8320;BME280;4197;42.130;24.746;2022-08-01T08:56:01;99031.31;;;27.52;31.39
8320;BME280;4197;42.130;24.746;2022-08-01T08:58:30;99016.31;;;27.65;30.95
8320;BME280;4197;42.130;24.746;2022-08-01T09:01:07;99020.94;;;27.53;31.42
8320;BME280;4197;42.130;24.746;2022-08-01T09:03:36;99019.22;;;27.55;31.63
8320;BME280;4197;42.130;24.746;2022-08-01T09:06:04;99015.94;;;27.57;31.01
8320;BME280;4197;42.130;24.746;2022-08-01T09:08:32;99018.03;;;27.62;30.97
8320;BME280;4197;42.130;24.746;2022-08-01T09:11:01;99018.81;;;27.77;31.04
8320;BME280;4197;42.130;24.746;2022-08-01T09:13:29;99016.31;;;27.94;30.72
8320;BME280;4197;42.130;24.746;2022-08-01T09:15:58;99026.31;;;27.86;31.06
8320;BME280;4197;42.130;24.746;2022-08-01T09:18:32;99010.28;;;27.81;30.93
8320;BME280;4197;42.130;24.746;2022-08-01T09:21:08;99002.56;;;27.76;31.10
8320;BME280;4197;42.130;24.746;2022-08-01T09:23:39;99010.06;;;27.70;31.55
8320;BME280;4197;42.130;24.746;2022-08-01T09:26:29;99014.22;;;27.89;31.66
8320;BME280;4197;42.130;24.746;2022-08-01T09:29:00;98993.59;;;28.01;31.17
8320;BME280;4197;42.130;24.746;2022-08-01T09:31:39;98995.78;;;28.12;30.85
8320;BME280;4197;42.130;24.746;2022-08-01T09:34:15;98983.25;;;28.02;30.80
8320;BME280;4197;42.130;24.746;2022-08-01T09:36:48;98996.69;;;28.03;30.63
8320;BME280;4197;42.130;24.746;2022-08-01T09:39:22;99006.84;;;28.07;30.97
8320;BME280;4197;42.130;24.746;2022-08-01T09:41:51;99002.94;;;27.98;31.09
8320;BME280;4197;42.130;24.746;2022-08-01T09:44:37;98990.75;;;27.96;31.48
8320;BME280;4197;42.130;24.746;2022-08-01T09:47:11;98984.78;;;28.03;30.88
8320;BME280;4197;42.130;24.746;2022-08-01T09:49:43;98982.44;;;28.16;31.47
8320;BME280;4197;42.130;24.746;2022-08-01T09:52:19;98981.09;;;28.12;30.86
8320;BME280;4197;42.130;24.746;2022-08-01T09:54:53;98976.88;;;28.01;31.26
8320;BME280;4197;42.130;24.746;2022-08-01T09:57:23;98979.06;;;28.12;31.97
8320;BME280;4197;42.130;24.746;2022-08-01T09:59:53;98979.03;;;28.27;31.35
8320;BME280;4197;42.130;24.746;2022-08-01T10:02:30;98982.94;;;28.35;31.55
8320;BME280;4197;42.130;24.746;2022-08-01T10:05:03;98995.34;;;28.34;31.28
8320;BME280;4197;42.130;24.746;2022-08-01T10:07:35;98975.44;;;28.27;31.28
8320;BME280;4197;42.130;24.746;2022-08-01T10:10:12;98974.50;;;28.30;31.45
8320;BME280;4197;42.130;24.746;2022-08-01T10:12:41;98975.13;;;28.39;31.12
8320;BME280;4197;42.130;24.746;2022-08-01T10:15:15;98974.19;;;28.42;31.53
8320;BME280;4197;42.130;24.746;2022-08-01T10:17:50;98963.78;;;28.43;31.28
8320;BME280;4197;42.130;24.746;2022-08-01T10:20:28;98969.09;;;28.61;31.29
8320;BME280;4197;42.130;24.746;2022-08-01T10:23:00;98962.75;;;28.61;30.62
8320;BME280;4197;42.130;24.746;2022-08-01T10:25:34;98971.53;;;28.74;30.65
8320;BME280;4197;42.130;24.746;2022-08-01T10:28:13;98969.16;;;28.67;30.61
8320;BME280;4197;42.130;24.746;2022-08-01T10:30:44;98949.78;;;28.58;30.55
8320;BME280;4197;42.130;24.746;2022-08-01T10:33:16;98957.72;;;28.44;31.42
8320;BME280;4197;42.130;24.746;2022-08-01T10:36:06;98971.09;;;28.61;30.91
8320;BME280;4197;42.130;24.746;2022-08-01T10:38:35;98961.69;;;28.58;30.83
8320;BME280;4197;42.130;24.746;2022-08-01T10:41:04;98970.69;;;28.48;30.94
8320;BME280;4197;42.130;24.746;2022-08-01T10:43:34;98969.56;;;28.60;30.86
8320;BME280;4197;42.130;24.746;2022-08-01T10:46:03;98968.94;;;28.71;30.74
8320;BME280;4197;42.130;24.746;2022-08-01T10:48:40;98973.09;;;28.81;30.67
8320;BME280;4197;42.130;24.746;2022-08-01T10:51:14;98965.38;;;28.90;30.90
8320;BME280;4197;42.130;24.746;2022-08-01T10:53:50;98966.38;;;29.13;30.37
8320;BME280;4197;42.130;24.746;2022-08-01T10:56:20;98976.66;;;29.28;29.81
8320;BME280;4197;42.130;24.746;2022-08-01T10:59:01;98956.41;;;29.33;29.49
8320;BME280;4197;42.130;24.746;2022-08-01T11:01:37;98963.16;;;29.52;29.92
8320;BME280;4197;42.130;24.746;2022-08-01T11:04:12;98973.00;;;29.48;29.82
8320;BME280;4197;42.130;24.746;2022-08-01T11:06:54;98972.63;;;29.34;29.95
8320;BME280;4197;42.130;24.746;2022-08-01T11:09:41;98966.91;;;29.44;29.85
8320;BME280;4197;42.130;24.746;2022-08-01T11:12:17;98965.44;;;29.54;29.89
8320;BME280;4197;42.130;24.746;2022-08-01T11:17:59;98958.91;;;29.63;29.38
8320;BME280;4197;42.130;24.746;2022-08-01T11:20:31;98949.22;;;29.58;29.33
8320;BME280;4197;42.130;24.746;2022-08-01T11:23:19;98964.56;;;29.68;29.63
8320;BME280;4197;42.130;24.746;2022-08-01T11:26:13;98968.97;;;29.49;29.54
8320;BME280;4197;42.130;24.746;2022-08-01T11:28:45;98945.59;;;29.46;29.42
8320;BME280;4197;42.130;24.746;2022-08-01T11:31:34;98946.41;;;29.52;29.83
8320;BME280;4197;42.130;24.746;2022-08-01T11:34:04;98953.81;;;29.61;29.45
8320;BME280;4197;42.130;24.746;2022-08-01T11:36:32;98965.47;;;29.60;28.87
8320;BME280;4197;42.130;24.746;2022-08-01T11:39:22;98937.38;;;29.63;28.97
8320;BME280;4197;42.130;24.746;2022-08-01T11:41:52;98941.44;;;29.68;29.31
8320;BME280;4197;42.130;24.746;2022-08-01T11:44:23;98934.84;;;29.71;29.78
8320;BME280;4197;42.130;24.746;2022-08-01T11:47:02;98941.47;;;29.73;29.11
8320;BME280;4197;42.130;24.746;2022-08-01T11:49:46;98937.91;;;29.73;28.98
8320;BME280;4197;42.130;24.746;2022-08-01T11:52:19;98921.25;;;29.90;28.83
8320;BME280;4197;42.130;24.746;2022-08-01T11:54:53;98936.81;;;29.96;28.79
8320;BME280;4197;42.130;24.746;2022-08-01T11:57:24;98943.72;;;30.07;28.71
8320;BME280;4197;42.130;24.746;2022-08-01T12:00:05;98941.88;;;29.98;28.56
8320;BME280;4197;42.130;24.746;2022-08-01T12:02:43;98923.31;;;29.95;29.25
8320;BME280;4197;42.130;24.746;2022-08-01T12:05:14;98924.66;;;30.05;28.55
8320;BME280;4197;42.130;24.746;2022-08-01T12:07:47;98923.66;;;30.08;28.65
8320;BME280;4197;42.130;24.746;2022-08-01T12:10:20;98926.97;;;30.12;27.79
8320;BME280;4197;42.130;24.746;2022-08-01T12:12:50;98923.19;;;30.15;27.78
8320;BME280;4197;42.130;24.746;2022-08-01T12:15:20;98921.91;;;30.16;28.09
8320;BME280;4197;42.130;24.746;2022-08-01T12:17:50;98932.81;;;30.14;27.52
8320;BME280;4197;42.130;24.746;2022-08-01T12:20:27;98932.56;;;30.18;27.62
8320;BME280;4197;42.130;24.746;2022-08-01T12:22:58;98922.13;;;30.07;28.30
8320;BME280;4197;42.130;24.746;2022-08-01T12:25:29;98922.41;;;30.15;27.76
8320;BME280;4197;42.130;24.746;2022-08-01T12:28:00;98915.63;;;30.27;27.53
8320;BME280;4197;42.130;24.746;2022-08-01T12:30:29;98914.66;;;30.36;27.94
8320;BME280;4197;42.130;24.746;2022-08-01T12:33:03;98918.00;;;30.51;27.18
8320;BME280;4197;42.130;24.746;2022-08-01T12:35:32;98912.66;;;30.48;27.52
8320;BME280;4197;42.130;24.746;2022-08-01T12:38:03;98918.53;;;30.55;27.45
8320;BME280;4197;42.130;24.746;2022-08-01T12:40:35;98911.44;;;30.60;27.41
8320;BME280;4197;42.130;24.746;2022-08-01T12:43:16;98902.00;;;30.57;27.25
8320;BME280;4197;42.130;24.746;2022-08-01T12:45:55;98907.06;;;30.48;27.29
8320;BME280;4197;42.130;24.746;2022-08-01T12:48:25;98913.16;;;30.46;27.30
8320;BME280;4197;42.130;24.746;2022-08-01T12:50:56;98909.59;;;30.45;27.47
8320;BME280;4197;42.130;24.746;2022-08-01T12:53:27;98910.38;;;30.52;27.63
8320;BME280;4197;42.130;24.746;2022-08-01T12:56:09;98899.22;;;30.63;27.26
8320;BME280;4197;42.130;24.746;2022-08-01T12:58:38;98901.00;;;30.72;27.64
8320;BME280;4197;42.130;24.746;2022-08-01T13:01:08;98898.22;;;30.72;26.91
8320;BME280;4197;42.130;24.746;2022-08-01T13:03:38;98895.16;;;30.70;27.17
8320;BME280;4197;42.130;24.746;2022-08-01T13:06:11;98904.06;;;30.68;26.94
8320;BME280;4197;42.130;24.746;2022-08-01T13:08:43;98896.91;;;30.56;27.32
8320;BME280;4197;42.130;24.746;2022-08-01T13:11:14;98893.09;;;30.64;27.22
8320;BME280;4197;42.130;24.746;2022-08-01T13:13:45;98893.38;;;30.78;27.25
8320;BME280;4197;42.130;24.746;2022-08-01T13:16:17;98884.25;;;30.83;27.06
8320;BME280;4197;42.130;24.746;2022-08-01T13:19:04;98902.06;;;30.80;27.32
8320;BME280;4197;42.130;24.746;2022-08-01T13:21:33;98906.09;;;30.79;26.97
8320;BME280;4197;42.130;24.746;2022-08-01T13:24:24;98891.84;;;30.65;26.75
8320;BME280;4197;42.130;24.746;2022-08-01T13:26:56;98897.19;;;30.63;27.42
8320;BME280;4197;42.130;24.746;2022-08-01T13:29:30;98888.59;;;30.84;27.58
8320;BME280;4197;42.130;24.746;2022-08-01T13:31:59;98877.38;;;30.89;27.20
8320;BME280;4197;42.130;24.746;2022-08-01T13:34:31;98885.28;;;30.85;27.21
8320;BME280;4197;42.130;24.746;2022-08-01T13:36:59;98877.59;;;30.75;27.46
8320;BME280;4197;42.130;24.746;2022-08-01T13:39:29;98875.06;;;30.77;27.20